sensor_id;sensor_type;location;lat;lon;timestamp;temperature;humidity
28297;DHT22;62078;49.366;8.172;2022-11-12T08:31:40;16.30;58.80
28297;DHT22;62078;49.366;8.172;2022-11-12T08:34:06;15.60;60.50
28297;DHT22;62078;49.366;8.172;2022-11-12T08:36:38;15.40;62.90
28297;DHT22;62078;49.366;8.172;2022-11-12T08:39:05;15.60;63.80
28297;DHT22;62078;49.366;8.172;2022-11-12T08:41:31;15.90;63.50
28297;DHT22;62078;49.366;8.172;2022-11-12T08:43:57;16.10;63.50
28297;DHT22;62078;49.366;8.172;2022-11-12T08:46:23;16.30;64.10
28297;DHT22;62078;49.366;8.172;2022-11-12T08:48:48;16.50;63.40
28297;DHT22;62078;49.366;8.172;2022-11-12T08:51:14;16.60;63.70
28297;DHT22;62078;49.366;8.172;2022-11-12T08:53:40;16.70;63.60
28297;DHT22;62078;49.366;8.172;2022-11-12T08:56:05;16.80;63.90
28297;DHT22;62078;49.366;8.172;2022-11-12T08:58:31;16.90;63.50
28297;DHT22;62078;49.366;8.172;2022-11-12T09:01:06;16.90;64.20
28297;DHT22;62078;49.366;8.172;2022-11-12T09:03:32;17.10;63.90
28297;DHT22;62078;49.366;8.172;2022-11-12T09:06:01;17.20;64.40
28297;DHT22;62078;49.366;8.172;2022-11-12T09:08:27;17.20;64.40
28297;DHT22;62078;49.366;8.172;2022-11-12T09:10:53;17.20;64.20
28297;DHT22;62078;49.366;8.172;2022-11-12T09:13:19;17.20;64.10
28297;DHT22;62078;49.366;8.172;2022-11-12T09:15:45;17.30;64.70
28297;DHT22;62078;49.366;8.172;2022-11-12T09:18:16;17.30;64.80
28297;DHT22;62078;49.366;8.172;2022-11-12T09:20:42;17.40;65.00
28297;DHT22;62078;49.366;8.172;2022-11-12T09:23:13;17.40;65.00
28297;DHT22;62078;49.366;8.172;2022-11-12T09:25:39;17.40;65.20
28297;DHT22;62078;49.366;8.172;2022-11-12T09:28:09;17.50;64.70
28297;DHT22;62078;49.366;8.172;2022-11-12T09:30:36;17.50;65.10
28297;DHT22;62078;49.366;8.172;2022-11-12T09:33:03;17.50;65.00
28297;DHT22;62078;49.366;8.172;2022-11-12T09:35:29;17.50;65.10
28297;DHT22;62078;49.366;8.172;2022-11-12T09:37:56;17.50;65.10
28297;DHT22;62078;49.366;8.172;2022-11-12T09:43:32;17.60;65.10
28297;DHT22;62078;49.366;8.172;2022-11-12T09:46:08;17.60;65.30
28297;DHT22;62078;49.366;8.172;2022-11-12T09:48:41;17.60;65.10
28297;DHT22;62078;49.366;8.172;2022-11-12T09:51:25;17.60;65.20
28297;DHT22;62078;49.366;8.172;2022-11-12T09:56:21;17.70;65.40
28297;DHT22;62078;49.366;8.172;2022-11-12T09:58:48;17.70;66.00
28297;DHT22;62078;49.366;8.172;2022-11-12T10:07:35;17.70;66.10
28297;DHT22;62078;49.366;8.172;2022-11-12T10:10:19;17.70;65.90
28297;DHT22;62078;49.366;8.172;2022-11-12T10:24:02;17.70;66.50
28297;DHT22;62078;49.366;8.172;2022-11-12T10:26:29;17.80;66.60
28297;DHT22;62078;49.366;8.172;2022-11-12T10:31:49;17.70;66.40
28297;DHT22;62078;49.366;8.172;2022-11-12T10:34:24;17.70;65.80
28297;DHT22;62078;49.366;8.172;2022-11-12T10:37:00;17.70;66.00
28297;DHT22;62078;49.366;8.172;2022-11-12T10:39:44;17.70;66.40
28297;DHT22;62078;49.366;8.172;2022-11-12T10:42:20;17.70;66.50
28297;DHT22;62078;49.366;8.172;2022-11-12T10:44:46;17.70;66.60
28297;DHT22;62078;49.366;8.172;2022-11-12T10:47:22;17.70;66.80
28297;DHT22;62078;49.366;8.172;2022-11-12T10:52:33;17.70;66.80
28297;DHT22;62078;49.366;8.172;2022-11-12T10:55:20;17.70;66.90
28297;DHT22;62078;49.366;8.172;2022-11-12T11:00:28;17.70;66.90
28297;DHT22;62078;49.366;8.172;2022-11-12T11:02:54;17.70;66.20
28297;DHT22;62078;49.366;8.172;2022-11-12T11:05:36;17.80;66.60
28297;DHT22;62078;49.366;8.172;2022-11-12T11:08:03;17.70;66.90
28297;DHT22;62078;49.366;8.172;2022-11-12T11:10:32;17.70;67.10
28297;DHT22;62078;49.366;8.172;2022-11-12T11:18:22;17.80;67.20
28297;DHT22;62078;49.366;8.172;2022-11-12T11:20:58;17.80;66.60
28297;DHT22;62078;49.366;8.172;2022-11-12T11:23:38;17.80;66.50
28297;DHT22;62078;49.366;8.172;2022-11-12T11:26:19;17.80;66.50
28297;DHT22;62078;49.366;8.172;2022-11-12T11:28:59;17.80;66.80
28297;DHT22;62078;49.366;8.172;2022-11-12T11:31:43;17.80;67.00
28297;DHT22;62078;49.366;8.172;2022-11-12T11:34:41;17.80;66.80
28297;DHT22;62078;49.366;8.172;2022-11-12T11:37:29;17.80;67.00
28297;DHT22;62078;49.366;8.172;2022-11-12T11:51:01;17.70;67.10
28297;DHT22;62078;49.366;8.172;2022-11-12T11:53:50;17.70;66.90
28297;DHT22;62078;49.366;8.172;2022-11-12T11:56:27;17.70;67.10
28297;DHT22;62078;49.366;8.172;2022-11-12T12:02:03;17.70;66.90
28297;DHT22;62078;49.366;8.172;2022-11-12T12:13:06;17.70;66.70
28297;DHT22;62078;49.366;8.172;2022-11-12T12:15:49;17.70;66.90
28297;DHT22;62078;49.366;8.172;2022-11-12T12:18:40;17.70;67.00
28297;DHT22;62078;49.366;8.172;2022-11-12T12:23:47;17.70;66.60
28297;DHT22;62078;49.366;8.172;2022-11-12T12:26:20;17.70;66.80
28297;DHT22;62078;49.366;8.172;2022-11-12T12:29:10;17.70;66.70
28297;DHT22;62078;49.366;8.172;2022-11-12T12:31:43;17.70;66.60
28297;DHT22;62078;49.366;8.172;2022-11-12T12:34:23;17.70;66.80
28297;DHT22;62078;49.366;8.172;2022-11-12T12:36:58;17.70;66.70
28297;DHT22;62078;49.366;8.172;2022-11-12T12:42:29;17.70;66.90
28297;DHT22;62078;49.366;8.172;2022-11-12T12:45:01;17.70;67.20
28297;DHT22;62078;49.366;8.172;2022-11-12T12:47:38;17.70;66.60
28297;DHT22;62078;49.366;8.172;2022-11-12T12:50:10;17.70;66.80
28297;DHT22;62078;49.366;8.172;2022-11-12T12:53:02;17.70;66.70
28297;DHT22;62078;49.366;8.172;2022-11-12T12:55:45;17.70;66.70
28297;DHT22;62078;49.366;8.172;2022-11-12T12:58:30;17.60;66.90
28297;DHT22;62078;49.366;8.172;2022-11-12T13:06:24;17.70;66.70
28297;DHT22;62078;49.366;8.172;2022-11-12T13:09:02;17.70;66.10
28297;DHT22;62078;49.366;8.172;2022-11-12T13:14:44;17.70;66.90
28297;DHT22;62078;49.366;8.172;2022-11-12T13:17:44;17.70;67.00
28297;DHT22;62078;49.366;8.172;2022-11-12T13:20:31;17.70;66.80
28297;DHT22;62078;49.366;8.172;2022-11-12T13:22:57;17.70;67.10
28297;DHT22;62078;49.366;8.172;2022-11-12T13:25:29;17.70;66.90
28297;DHT22;62078;49.366;8.172;2022-11-12T13:28:05;17.70;67.00
28297;DHT22;62078;49.366;8.172;2022-11-12T13:32:58;17.60;66.80
28297;DHT22;62078;49.366;8.172;2022-11-12T13:40:54;17.60;66.80
28297;DHT22;62078;49.366;8.172;2022-11-12T13:43:42;17.60;66.70
28297;DHT22;62078;49.366;8.172;2022-11-12T13:46:26;17.60;66.90
28297;DHT22;62078;49.366;8.172;2022-11-12T13:49:02;17.60;66.70
28297;DHT22;62078;49.366;8.172;2022-11-12T13:51:49;17.60;66.70
28297;DHT22;62078;49.366;8.172;2022-11-12T13:54:27;17.60;66.70
28297;DHT22;62078;49.366;8.172;2022-11-12T13:56:54;17.60;66.80
28297;DHT22;62078;49.366;8.172;2022-11-12T13:59:22;17.60;66.80
28297;DHT22;62078;49.366;8.172;2022-11-12T14:01:49;17.60;66.60
28297;DHT22;62078;49.366;8.172;2022-11-12T14:04:20;17.60;66.70
28297;DHT22;62078;49.366;8.172;2022-11-12T14:20:43;17.60;65.80
28297;DHT22;62078;49.366;8.172;2022-11-12T14:23:16;17.60;66.20
28297;DHT22;62078;49.366;8.172;2022-11-12T14:25:53;17.60;66.30
28297;DHT22;62078;49.366;8.172;2022-11-12T14:30:50;17.60;66.30
28297;DHT22;62078;49.366;8.172;2022-11-12T14:33:18;17.50;66.20
28297;DHT22;62078;49.366;8.172;2022-11-12T14:35:46;17.50;66.30
28297;DHT22;62078;49.366;8.172;2022-11-12T14:38:37;17.50;66.20
28297;DHT22;62078;49.366;8.172;2022-11-12T14:41:09;17.50;66.10
28297;DHT22;62078;49.366;8.172;2022-11-12T14:43:52;17.50;65.90
28297;DHT22;62078;49.366;8.172;2022-11-12T14:46:32;17.50;66.40
28297;DHT22;62078;49.366;8.172;2022-11-12T14:49:17;17.50;66.50
28297;DHT22;62078;49.366;8.172;2022-11-12T14:51:59;17.50;66.80
28297;DHT22;62078;49.366;8.172;2022-11-12T14:54:49;17.50;66.80
28297;DHT22;62078;49.366;8.172;2022-11-12T14:57:26;17.50;66.70
28297;DHT22;62078;49.366;8.172;2022-11-12T14:59:53;17.50;66.70
28297;DHT22;62078;49.366;8.172;2022-11-12T15:02:24;17.50;66.70
28297;DHT22;62078;49.366;8.172;2022-11-12T15:05:02;17.50;66.60
28297;DHT22;62078;49.366;8.172;2022-11-12T15:07:34;17.50;66.80
